Coral Leaf — PHNI — position and weather

sailwx.info

Track history (hours):
 
Tides and Currents Weather Stations Pressure Air Temp Water Temp Dewpoint Dewpoint Depression Visibility Wind Speed Wind Dir Waves Ship Positions

Coral Leaf

Last reported at 2016-Apr-30 18:31 UTC. Time now 2016-Apr-30 18:49 UTC.
Position N 51°16' E 004°20'.

Length 108 m; draft 6.8 m.

MMSI: 244036000.

Date/timePositionNaut miles runAvg speedWind from/ knotsBaromVisibWave heightAir tempDewpointWater temp
2016-Apr-30 18:31N 51°16' E 004°20'0 0.0
2016-Apr-30 17:31N 51°16' E 004°20'0 0.0
2016-Apr-30 16:31N 51°16' E 004°20'0 0.0
2016-Apr-30 15:31N 51°16' E 004°20'0 0.0
2016-Apr-30 14:31N 51°16' E 004°20'0 0.0
2016-Apr-30 13:31N 51°16' E 004°20'0 0.0
2016-Apr-30 12:33N 51°16' E 004°20'0 0.0
2016-Apr-30 11:33N 51°16' E 004°20'0 0.0
2016-Apr-30 10:27N 51°16' E 004°20'0 0.0
2016-Apr-30 09:33N 51°16' E 004°20'0 0.0
2016-Apr-30 08:33N 51°16' E 004°20'0 0.0
2016-Apr-30 07:33N 51°16' E 004°20'0 0.0
2016-Apr-30 06:30N 51°16' E 004°20'0 0.0
2016-Apr-30 05:33N 51°16' E 004°20'0 0.0
2016-Apr-30 04:33N 51°16' E 004°20'0 0.0
2016-Apr-30 03:33N 51°16' E 004°20'0 0.0
2016-Apr-30 02:33N 51°16' E 004°20'0 0.0
2016-Apr-30 01:32N 51°16' E 004°20'0 0.0
2016-Apr-30 00:29N 51°16' E 004°20'0 0.0
2016-Apr-29 23:32N 51°16' E 004°20'0 0.0
2016-Apr-29 22:29N 51°16' E 004°20'0 0.0
2016-Apr-29 21:32N 51°16' E 004°20'0 0.0
2016-Apr-29 20:29N 51°16' E 004°20'0 0.0
2016-Apr-29 19:32N 51°16' E 004°20'0 0.0
2016-Apr-29 18:32N 51°16' E 004°20'0 0.0
2016-Apr-29 17:32N 51°16' E 004°20'0 0.0
2016-Apr-29 16:32N 51°16' E 004°20'0 0.0
2016-Apr-29 15:31N 51°16' E 004°20'0 0.1
2016-Apr-29 14:34N 51°16' E 004°20'4 3.6
2016-Apr-29 13:33N 51°19' E 004°19'2 1.9
2016-Apr-29 12:33N 51°21' E 004°17'3 2.7
2016-Apr-29 11:33N 51°22' E 004°13'9 8.8
2016-Apr-29 10:33N 51°26' E 004°01'10 9.8
2016-Apr-29 09:33N 51°21' E 003°47'9 9.3
2016-Apr-29 08:33N 51°26' E 003°34'1211.4
2016-Apr-29 07:33N 51°35' E 003°23'1110.6
2016-Apr-29 06:31N 51°46' E 003°17'0 0.0
2016-Apr-29 00:22N 51°46' E 003°17'14713.5
2016-Apr-28 13:27N 54°01' E 004°55'1314.8
2016-Apr-28 12:33N 54°13' E 005°04'26914.7
2016-Apr-27 18:12N 57°44' E 010°01'1015.7
2016-Apr-27 17:33N 57°48' E 010°19'1515.4
2016-Apr-27 16:34N 57°48' E 010°47'1515.0
2016-Apr-27 15:33N 57°37' E 011°08'1515.2
2016-Apr-27 14:33N 57°27' E 011°29'1615.8
2016-Apr-27 13:34N 57°12' E 011°37'1615.6
2016-Apr-27 12:33N 56°57' E 011°47'1515.0
2016-Apr-27 11:34N 56°43' E 011°56'1515.0
2016-Apr-27 10:33N 56°28' E 012°02'1414.0
2016-Apr-27 09:33N 56°15' E 012°13'1515.1
2016-Apr-27 08:34N 56°06' E 012°34'1413.8
2016-Apr-27 07:34N 55°53' E 012°40'1514.8
2016-Apr-27 06:34N 55°38' E 012°42'1312.6
2016-Apr-27 05:34N 55°26' E 012°42'1110.8
2016-Apr-27 04:33N 55°16' E 012°51'1413.7
2016-Apr-27 03:33N 55°15' E 013°15'1413.8
2016-Apr-27 02:33N 55°14' E 013°39'1414.3
2016-Apr-27 01:33N 55°14' E 014°04'1313.2
2016-Apr-27 00:33N 55°20' E 014°25'1413.9
2016-Apr-26 23:33N 55°29' E 014°43'1413.9
2016-Apr-26 22:33N 55°35' E 015°06'1414.0
2016-Apr-26 21:33N 55°42' E 015°27'31414.8
2016-Apr-26 00:17N 59°26' E 022°18'2715.4
2016-Apr-25 22:31N 59°36' E 023°07'1515.7
2016-Apr-25 21:33N 59°40' E 023°36'1515.4
2016-Apr-25 20:33N 59°45' E 024°05'  
2016-Apr-23 16:33N 59°37' E 023°41'1515.2
2016-Apr-23 15:33N 59°32' E 023°13'34514.7
2016-Apr-22 16:05N 55°37' E 015°22'815.1
2016-Apr-22 15:33N 55°33' E 015°09'1515.0
2016-Apr-22 14:33N 55°26' E 014°46'1514.8
2016-Apr-22 13:33N 55°16' E 014°28'1413.9
2016-Apr-22 12:33N 55°10' E 014°06'1615.7
2016-Apr-22 11:33N 55°12' E 013°38'1616.1
2016-Apr-22 10:34N 55°14' E 013°10'1615.6
2016-Apr-22 09:33N 55°16' E 012°43'1312.9
2016-Apr-22 08:34N 55°29' E 012°41'1515.0
2016-Apr-22 07:34N 55°44' E 012°41'1616.1
2016-Apr-22 06:34N 56°00' E 012°40'1414.0
2016-Apr-22 05:33N 56°10' E 012°22'1312.8
2016-Apr-22 04:33N 56°17' E 012°03'1312.8
2016-Apr-22 03:33N 56°30' E 011°58'1312.9
2016-Apr-22 02:33N 56°43' E 011°53'4113.7
2016-Apr-21 23:33N 57°21' E 011°28'1313.2
2016-Apr-21 22:34N 57°32' E 011°14'1313.3
2016-Apr-21 21:33N 57°41' E 010°56'26913.4
2016-Apr-21 01:32N 54°26' E 005°25'1515.4
2016-Apr-21 00:33N 54°13' E 005°13'1515.4
2016-Apr-20 23:33N 53°58' E 005°03'1815.3
2016-Apr-20 22:25N 53°42' E 004°54'2815.1
2016-Apr-20 20:33N 53°16' E 004°35'1515.1
2016-Apr-20 19:33N 53°02' E 004°24'1515.4
2016-Apr-20 18:33N 52°49' E 004°12'  
Track history (hours):
 
Tides and Currents Weather Stations Pressure Air Temp Water Temp Dewpoint Dewpoint Depression Visibility Wind Speed Wind Dir Waves Ship Positions

Coral Leaf

Last reported at 2016-Apr-30 18:31 UTC. Time now 2016-Apr-30 18:49 UTC.
Position N 51°16' E 004°20'.

Length 108 m; draft 6.8 m.

MMSI: 244036000.

Date/timePositionNaut miles runAvg speedWind from/ knotsBaromVisibWave heightAir tempDewpointWater temp
2016-Apr-30 18:31N 51°16' E 004°20'0 0.0
2016-Apr-30 17:31N 51°16' E 004°20'0 0.0
2016-Apr-30 16:31N 51°16' E 004°20'0 0.0
2016-Apr-30 15:31N 51°16' E 004°20'0 0.0
2016-Apr-30 14:31N 51°16' E 004°20'0 0.0
2016-Apr-30 13:31N 51°16' E 004°20'0 0.0
2016-Apr-30 12:33N 51°16' E 004°20'0 0.0
2016-Apr-30 11:33N 51°16' E 004°20'0 0.0
2016-Apr-30 10:27N 51°16' E 004°20'0 0.0
2016-Apr-30 09:33N 51°16' E 004°20'0 0.0
2016-Apr-30 08:33N 51°16' E 004°20'0 0.0
2016-Apr-30 07:33N 51°16' E 004°20'0 0.0
2016-Apr-30 06:30N 51°16' E 004°20'0 0.0
2016-Apr-30 05:33N 51°16' E 004°20'0 0.0
2016-Apr-30 04:33N 51°16' E 004°20'0 0.0
2016-Apr-30 03:33N 51°16' E 004°20'0 0.0
2016-Apr-30 02:33N 51°16' E 004°20'0 0.0
2016-Apr-30 01:32N 51°16' E 004°20'0 0.0
2016-Apr-30 00:29N 51°16' E 004°20'0 0.0
2016-Apr-29 23:32N 51°16' E 004°20'0 0.0
2016-Apr-29 22:29N 51°16' E 004°20'0 0.0
2016-Apr-29 21:32N 51°16' E 004°20'0 0.0
2016-Apr-29 20:29N 51°16' E 004°20'0 0.0
2016-Apr-29 19:32N 51°16' E 004°20'0 0.0
2016-Apr-29 18:32N 51°16' E 004°20'0 0.0
2016-Apr-29 17:32N 51°16' E 004°20'0 0.0
2016-Apr-29 16:32N 51°16' E 004°20'0 0.0
2016-Apr-29 15:31N 51°16' E 004°20'0 0.1
2016-Apr-29 14:34N 51°16' E 004°20'4 3.6
2016-Apr-29 13:33N 51°19' E 004°19'2 1.9
2016-Apr-29 12:33N 51°21' E 004°17'3 2.7
2016-Apr-29 11:33N 51°22' E 004°13'9 8.8
2016-Apr-29 10:33N 51°26' E 004°01'10 9.8
2016-Apr-29 09:33N 51°21' E 003°47'9 9.3
2016-Apr-29 08:33N 51°26' E 003°34'1211.4
2016-Apr-29 07:33N 51°35' E 003°23'1110.6
2016-Apr-29 06:31N 51°46' E 003°17'0 0.0
2016-Apr-29 00:22N 51°46' E 003°17'14713.5
2016-Apr-28 13:27N 54°01' E 004°55'1314.8
2016-Apr-28 12:33N 54°13' E 005°04'26914.7
2016-Apr-27 18:12N 57°44' E 010°01'1015.7
2016-Apr-27 17:33N 57°48' E 010°19'1515.4
2016-Apr-27 16:34N 57°48' E 010°47'1515.0
2016-Apr-27 15:33N 57°37' E 011°08'1515.2
2016-Apr-27 14:33N 57°27' E 011°29'1615.8
2016-Apr-27 13:34N 57°12' E 011°37'1615.6
2016-Apr-27 12:33N 56°57' E 011°47'1515.0
2016-Apr-27 11:34N 56°43' E 011°56'1515.0
2016-Apr-27 10:33N 56°28' E 012°02'1414.0
2016-Apr-27 09:33N 56°15' E 012°13'1515.1
2016-Apr-27 08:34N 56°06' E 012°34'1413.8
2016-Apr-27 07:34N 55°53' E 012°40'1514.8
2016-Apr-27 06:34N 55°38' E 012°42'1312.6
2016-Apr-27 05:34N 55°26' E 012°42'1110.8
2016-Apr-27 04:33N 55°16' E 012°51'1413.7
2016-Apr-27 03:33N 55°15' E 013°15'1413.8
2016-Apr-27 02:33N 55°14' E 013°39'1414.3
2016-Apr-27 01:33N 55°14' E 014°04'1313.2
2016-Apr-27 00:33N 55°20' E 014°25'1413.9
2016-Apr-26 23:33N 55°29' E 014°43'1413.9
2016-Apr-26 22:33N 55°35' E 015°06'1414.0
2016-Apr-26 21:33N 55°42' E 015°27'31414.8
2016-Apr-26 00:17N 59°26' E 022°18'2715.4
2016-Apr-25 22:31N 59°36' E 023°07'1515.7
2016-Apr-25 21:33N 59°40' E 023°36'1515.4
2016-Apr-25 20:33N 59°45' E 024°05'  
2016-Apr-23 16:33N 59°37' E 023°41'1515.2
2016-Apr-23 15:33N 59°32' E 023°13'34514.7
2016-Apr-22 16:05N 55°37' E 015°22'815.1
2016-Apr-22 15:33N 55°33' E 015°09'1515.0
2016-Apr-22 14:33N 55°26' E 014°46'1514.8
2016-Apr-22 13:33N 55°16' E 014°28'1413.9
2016-Apr-22 12:33N 55°10' E 014°06'1615.7
2016-Apr-22 11:33N 55°12' E 013°38'1616.1
2016-Apr-22 10:34N 55°14' E 013°10'1615.6
2016-Apr-22 09:33N 55°16' E 012°43'1312.9
2016-Apr-22 08:34N 55°29' E 012°41'1515.0
2016-Apr-22 07:34N 55°44' E 012°41'1616.1
2016-Apr-22 06:34N 56°00' E 012°40'1414.0
2016-Apr-22 05:33N 56°10' E 012°22'1312.8
2016-Apr-22 04:33N 56°17' E 012°03'1312.8
2016-Apr-22 03:33N 56°30' E 011°58'1312.9
2016-Apr-22 02:33N 56°43' E 011°53'4113.7
2016-Apr-21 23:33N 57°21' E 011°28'1313.2
2016-Apr-21 22:34N 57°32' E 011°14'1313.3
2016-Apr-21 21:33N 57°41' E 010°56'26913.4
2016-Apr-21 01:32N 54°26' E 005°25'1515.4
2016-Apr-21 00:33N 54°13' E 005°13'1515.4
2016-Apr-20 23:33N 53°58' E 005°03'1815.3
2016-Apr-20 22:25N 53°42' E 004°54'2815.1
2016-Apr-20 20:33N 53°16' E 004°35'1515.1
2016-Apr-20 19:33N 53°02' E 004°24'1515.4
2016-Apr-20 18:33N 52°49' E 004°12'  

Dump ship's entire track history